createdAt,value
2018-04-22T00:02:36.945Z,13.50
2018-04-22T00:05:07.409Z,13.50
2018-04-22T00:07:37.318Z,13.40
2018-04-22T00:10:08.019Z,13.40
2018-04-22T00:12:38.531Z,13.40
2018-04-22T00:15:09.957Z,13.40
2018-04-22T00:17:40.531Z,13.30
2018-04-22T00:20:11.025Z,13.30
2018-04-22T00:22:41.650Z,13.30
2018-04-22T00:25:12.289Z,13.30
2018-04-22T00:27:42.930Z,13.30
2018-04-22T00:30:14.333Z,13.30
2018-04-22T00:32:45.040Z,13.30
2018-04-22T00:35:16.155Z,13.30
2018-04-22T00:37:47.409Z,13.30
2018-04-22T00:40:18.908Z,13.30
2018-04-22T00:42:47.914Z,13.30
2018-04-22T00:45:18.586Z,13.20
2018-04-22T00:47:50.580Z,13.10
2018-04-22T00:50:21.118Z,13.10
2018-04-22T00:52:52.573Z,13.00
2018-04-22T00:55:23.195Z,13.00
2018-04-22T00:57:53.670Z,12.90
2018-04-22T01:00:24.345Z,13.00
2018-04-22T01:02:55.099Z,13.10
2018-04-22T01:05:23.278Z,13.20
2018-04-22T01:07:52.996Z,13.10
2018-04-22T01:10:21.087Z,13.00
2018-04-22T01:12:51.051Z,12.90
2018-04-22T01:15:20.223Z,12.90
2018-04-22T01:17:51.738Z,12.90
2018-04-22T01:20:21.000Z,12.80
2018-04-22T01:22:49.494Z,12.90
2018-04-22T01:25:19.376Z,12.90
2018-04-22T01:27:48.563Z,13.00
2018-04-22T01:30:18.430Z,12.80
2018-04-22T01:32:48.454Z,12.80
2018-04-22T01:35:16.758Z,12.80
2018-04-22T01:37:45.669Z,12.70
2018-04-22T01:40:14.817Z,12.50
2018-04-22T01:42:42.942Z,12.50
2018-04-22T01:45:13.581Z,12.40
2018-04-22T01:47:44.208Z,12.40
2018-04-22T01:50:13.273Z,12.40
2018-04-22T01:52:42.422Z,12.40
2018-04-22T01:55:10.044Z,12.40
2018-04-22T01:57:40.397Z,12.50
2018-04-22T02:00:07.980Z,12.50
2018-04-22T02:02:36.158Z,12.40
2018-04-22T02:05:05.306Z,12.30
2018-04-22T02:07:35.120Z,12.30
2018-04-22T02:10:03.541Z,12.30
2018-04-22T02:12:32.022Z,12.30
2018-04-22T02:14:59.689Z,12.20
2018-04-22T02:17:27.800Z,12.20
2018-04-22T02:19:57.726Z,12.00
2018-04-22T02:22:26.057Z,12.00
2018-04-22T02:24:53.656Z,11.90
2018-04-22T02:27:23.043Z,12.00
2018-04-22T02:29:51.542Z,11.90
2018-04-22T02:32:21.593Z,11.90
2018-04-22T02:34:50.058Z,11.90
2018-04-22T02:37:20.682Z,11.90
2018-04-22T02:39:50.113Z,11.90
2018-04-22T02:42:20.084Z,11.90
2018-04-22T02:44:50.022Z,11.90
2018-04-22T02:47:20.203Z,11.90
2018-04-22T02:49:48.651Z,12.00
2018-04-22T02:52:17.138Z,12.00
2018-04-22T02:54:45.625Z,12.00
2018-04-22T02:57:16.628Z,12.10
2018-04-22T02:59:44.789Z,12.00
2018-04-22T03:02:12.390Z,12.00
2018-04-22T03:04:40.035Z,12.00
2018-04-22T03:07:08.341Z,12.00
2018-04-22T03:09:37.523Z,12.10
2018-04-22T03:12:06.785Z,12.00
2018-04-22T03:14:34.946Z,12.10
2018-04-22T03:17:03.376Z,11.90
2018-04-22T03:19:33.383Z,11.90
2018-04-22T03:22:01.159Z,11.80
2018-04-22T03:24:28.821Z,11.70
2018-04-22T03:26:57.006Z,11.50
2018-04-22T03:29:24.677Z,11.50
2018-04-22T03:31:52.274Z,11.50
2018-04-22T03:34:20.791Z,11.50
2018-04-22T03:36:48.888Z,11.50
2018-04-22T03:39:17.072Z,11.50
2018-04-22T03:41:44.663Z,11.50
2018-04-22T03:44:12.262Z,11.50
2018-04-22T03:46:39.886Z,11.40
2018-04-22T03:49:07.470Z,11.40
2018-04-22T03:51:35.113Z,11.40
2018-04-22T03:54:02.701Z,11.30
2018-04-22T03:56:30.309Z,11.20
2018-04-22T03:58:58.735Z,11.10
2018-04-22T04:01:27.067Z,11.00
2018-04-22T04:03:55.403Z,11.00
2018-04-22T04:06:23.042Z,10.90
2018-04-22T04:08:50.618Z,10.80
2018-04-22T04:11:18.240Z,10.80
2018-04-22T04:13:45.861Z,10.90
2018-04-22T04:16:13.473Z,10.90
2018-04-22T04:19:01.808Z,10.90
2018-04-22T04:21:41.155Z,10.90
2018-04-22T04:27:22.026Z,10.70
2018-04-22T04:29:50.321Z,10.60
2018-04-22T04:32:17.864Z,10.60
2018-04-22T04:34:46.163Z,10.70
2018-04-22T04:37:13.762Z,10.60
2018-04-22T04:39:41.373Z,10.70
2018-04-22T04:42:08.991Z,10.80
2018-04-22T04:44:36.615Z,11.00
2018-04-22T04:47:04.188Z,11.20
2018-04-22T04:49:33.058Z,11.20
2018-04-22T04:52:00.705Z,11.10
2018-04-22T04:54:28.280Z,11.10
2018-04-22T04:56:55.884Z,11.10
2018-04-22T04:59:23.494Z,11.10
2018-04-22T05:01:51.134Z,11.10
2018-04-22T05:04:18.797Z,11.10
2018-04-22T05:06:46.395Z,11.20
2018-04-22T05:09:14.005Z,11.30
2018-04-22T05:11:42.373Z,11.50
2018-04-22T05:14:10.010Z,11.50
2018-04-22T05:29:55.522Z,11.90
2018-04-22T05:32:23.095Z,12.70
2018-04-22T05:34:50.725Z,12.70
2018-04-22T05:37:18.361Z,12.80
2018-04-22T05:39:45.947Z,12.80
2018-04-22T05:42:13.801Z,12.80
2018-04-22T05:44:41.375Z,12.90
2018-04-22T05:47:08.981Z,13.00
2018-04-22T05:49:36.574Z,12.80
2018-04-22T05:52:04.201Z,12.90
2018-04-22T05:54:31.789Z,13.10
2018-04-22T05:56:59.406Z,13.10
2018-04-22T05:59:28.945Z,13.20
2018-04-22T06:01:56.565Z,13.40
2018-04-22T06:04:42.050Z,13.70
2018-04-22T06:07:09.686Z,13.60
2018-04-22T06:09:40.014Z,13.90
2018-04-22T06:12:08.400Z,14.00
2018-04-22T06:14:36.838Z,14.20
2018-04-22T06:17:04.474Z,14.20
2018-04-22T06:19:32.077Z,14.40
2018-04-22T06:27:50.858Z,15.10
2018-04-22T06:30:18.465Z,15.10
2018-04-22T06:32:46.105Z,15.30
2018-04-22T06:35:13.734Z,15.50
2018-04-22T06:37:47.937Z,15.80
2018-04-22T06:40:15.648Z,16.10
2018-04-22T06:42:43.249Z,16.30
2018-04-22T06:45:10.931Z,16.50
2018-04-22T06:47:38.596Z,16.70
2018-04-22T06:50:20.596Z,17.00
2018-04-22T06:52:48.197Z,17.10
2018-04-22T06:55:16.571Z,17.40
2018-04-22T06:57:44.977Z,17.60
2018-04-22T07:00:12.642Z,17.60
2018-04-22T07:02:40.267Z,17.80
2018-04-22T07:05:08.643Z,18.20
2018-04-22T07:07:36.314Z,18.20
2018-04-22T07:10:04.711Z,18.30
2018-04-22T07:12:32.326Z,18.20
2018-04-22T07:14:59.945Z,18.40
2018-04-22T07:17:27.591Z,18.50
2018-04-22T07:19:55.215Z,18.70
2018-04-22T07:22:27.397Z,19.20
2018-04-22T07:24:55.795Z,20.50
2018-04-22T07:27:23.395Z,20.40
2018-04-22T07:29:51.034Z,21.50
2018-04-22T07:32:19.441Z,21.80
2018-04-22T07:34:47.087Z,21.70
2018-04-22T07:37:14.677Z,22.00
2018-04-22T07:39:42.408Z,22.10
2018-04-22T07:42:29.992Z,22.50
2018-04-22T07:45:00.803Z,22.60
2018-04-22T07:53:26.240Z,22.90
2018-04-22T07:55:53.858Z,22.60
2018-04-22T07:58:21.450Z,22.70
2018-04-22T08:00:49.089Z,23.60
2018-04-22T08:03:16.670Z,24.80
2018-04-22T08:05:44.288Z,24.30
2018-04-22T08:08:11.934Z,25.80
2018-04-22T08:10:40.295Z,27.00
2018-04-22T08:13:07.932Z,27.00
2018-04-22T08:15:39.817Z,27.80
2018-04-22T08:18:07.492Z,27.90
2018-04-22T08:20:35.135Z,28.50
2018-04-22T08:23:02.749Z,29.30
2018-04-22T08:25:30.362Z,29.90
2018-04-22T08:27:57.998Z,30.40
2018-04-22T08:30:25.653Z,31.10
2018-04-22T08:32:53.279Z,31.40
2018-04-22T08:35:20.917Z,29.90
2018-04-22T08:37:48.566Z,28.20
2018-04-22T08:40:16.207Z,28.20
2018-04-22T08:42:43.874Z,29.50
2018-04-22T08:45:11.498Z,31.30
2018-04-22T08:47:39.110Z,32.70
2018-04-22T08:50:06.772Z,33.90
2018-04-22T08:52:34.460Z,34.10
2018-04-22T08:55:02.173Z,31.50
2018-04-22T08:57:29.875Z,29.30
2018-04-22T08:59:57.486Z,29.40
2018-04-22T09:02:25.168Z,29.30
2018-04-22T09:04:52.850Z,29.90
2018-04-22T09:07:20.510Z,30.50
2018-04-22T09:09:48.178Z,30.70
2018-04-22T09:19:55.973Z,32.90
2018-04-22T09:25:35.716Z,34.40
2018-04-22T09:28:04.083Z,34.30
2018-04-22T09:30:32.463Z,33.40
2018-04-22T09:33:01.691Z,32.90
2018-04-22T09:35:29.395Z,32.90
2018-04-22T09:37:56.956Z,34.10
2018-04-22T09:40:24.557Z,35.00
2018-04-22T09:42:52.122Z,35.30
2018-04-22T09:45:19.718Z,35.20
2018-04-22T09:47:47.373Z,35.40
2018-04-22T09:50:14.949Z,34.10
2018-04-22T09:52:42.587Z,33.20
2018-04-22T09:55:10.138Z,33.20
2018-04-22T09:57:37.716Z,33.00
2018-04-22T10:00:06.253Z,34.20
2018-04-22T10:02:34.665Z,34.80
2018-04-22T10:05:08.220Z,34.80
2018-04-22T10:07:36.601Z,37.70
2018-04-22T10:10:04.987Z,36.70
2018-04-22T10:12:32.701Z,36.70
2018-04-22T10:15:01.237Z,37.00
2018-04-22T10:17:28.901Z,36.50
2018-04-22T10:19:56.527Z,35.70
2018-04-22T10:22:24.113Z,36.00
2018-04-22T10:24:51.703Z,35.20
2018-04-22T10:27:19.345Z,36.10
2018-04-22T10:29:46.941Z,36.40
2018-04-22T10:32:14.501Z,35.70
2018-04-22T10:34:42.163Z,35.90
2018-04-22T10:37:09.786Z,35.60
2018-04-22T10:39:37.410Z,35.80
2018-04-22T10:42:05.008Z,35.40
2018-04-22T10:44:33.337Z,35.30
2018-04-22T10:47:00.895Z,35.20
2018-04-22T10:49:28.515Z,35.00
2018-04-22T10:51:56.106Z,36.10
2018-04-22T10:54:23.745Z,36.40
2018-04-22T10:56:51.345Z,35.40
2018-04-22T10:59:19.016Z,35.40
2018-04-22T11:01:46.616Z,35.80
2018-04-22T11:04:22.262Z,36.40
2018-04-22T11:06:49.933Z,36.00
2018-04-22T11:09:17.497Z,34.90
2018-04-22T11:11:45.118Z,34.20
2018-04-22T11:14:12.695Z,34.00
2018-04-22T11:16:40.321Z,34.70
2018-04-22T11:19:07.984Z,34.80
2018-04-22T11:21:35.636Z,35.80
2018-04-22T11:24:03.272Z,36.10
2018-04-22T11:26:30.965Z,36.30
2018-04-22T11:28:58.592Z,37.10
2018-04-22T11:31:26.975Z,36.10
2018-04-22T11:34:01.521Z,36.00
2018-04-22T11:36:29.118Z,35.80
2018-04-22T11:38:57.512Z,34.70
2018-04-22T11:41:25.145Z,34.70
2018-04-22T11:43:52.748Z,35.30
2018-04-22T11:46:21.083Z,34.10
2018-04-22T11:48:48.694Z,34.10
2018-04-22T11:51:16.301Z,33.90
2018-04-22T11:53:43.886Z,34.40
2018-04-22T11:56:11.505Z,34.00
2018-04-22T11:58:39.105Z,32.60
2018-04-22T12:01:06.746Z,32.30
2018-04-22T12:03:34.271Z,31.60
2018-04-22T12:06:01.845Z,32.70
2018-04-22T12:08:29.429Z,34.30
2018-04-22T12:10:57.799Z,34.00
2018-04-22T12:13:25.367Z,33.90
2018-04-22T12:15:53.694Z,34.00
2018-04-22T12:18:21.318Z,34.00
2018-04-22T12:20:48.893Z,35.60
2018-04-22T12:23:16.493Z,36.60
2018-04-22T12:25:44.057Z,36.70
2018-04-22T12:28:24.261Z,36.60
2018-04-22T12:30:51.866Z,36.90
2018-04-22T12:33:21.022Z,35.70
2018-04-22T12:35:49.442Z,34.70
2018-04-22T12:38:17.830Z,33.80
2018-04-22T12:40:45.438Z,34.20
2018-04-22T12:43:13.057Z,34.90
2018-04-22T12:45:42.036Z,34.70
2018-04-22T12:48:11.177Z,34.10
2018-04-22T12:50:39.325Z,32.20
2018-04-22T12:53:08.484Z,31.00
2018-04-22T12:55:40.296Z,31.00
2018-04-22T12:58:18.677Z,32.60
2018-04-22T13:00:51.738Z,32.50
2018-04-22T13:03:27.678Z,32.40
2018-04-22T13:06:00.915Z,31.90
2018-04-22T13:08:29.639Z,30.70
2018-04-22T13:10:58.020Z,30.00
2018-04-22T13:13:25.598Z,29.90
2018-04-22T13:16:05.616Z,29.70
2018-04-22T13:18:34.894Z,29.30
2018-04-22T13:21:03.019Z,29.30
2018-04-22T13:23:32.378Z,29.60
2018-04-22T13:25:59.989Z,29.40
2018-04-22T13:28:28.418Z,29.10
2018-04-22T13:31:16.369Z,28.90
2018-04-22T13:33:44.823Z,28.90
2018-04-22T13:39:05.992Z,29.20
2018-04-22T13:41:35.260Z,30.60
2018-04-22T13:44:04.470Z,30.60
2018-04-22T13:46:56.821Z,29.90
2018-04-22T13:49:25.224Z,29.50
2018-04-22T13:51:52.809Z,29.40
2018-04-22T13:54:20.450Z,28.80
2018-04-22T13:56:49.621Z,28.70
2018-04-22T13:59:19.460Z,29.00
2018-04-22T14:01:49.339Z,28.90
2018-04-22T14:04:18.648Z,29.40
2018-04-22T14:06:48.469Z,29.30
2018-04-22T14:09:16.124Z,29.20
2018-04-22T14:11:45.539Z,28.60
2018-04-22T14:14:14.031Z,28.60
2018-04-22T14:16:43.897Z,28.70
2018-04-22T14:19:12.489Z,28.60
2018-04-22T14:21:40.057Z,28.60
2018-04-22T14:24:09.981Z,30.00
2018-04-22T14:26:38.193Z,29.90
2018-04-22T14:29:07.168Z,30.80
2018-04-22T14:31:36.528Z,30.70
2018-04-22T14:34:05.812Z,31.10
2018-04-22T14:36:34.911Z,31.10
2018-04-22T14:39:04.065Z,31.10
2018-04-22T14:41:33.235Z,30.40
2018-04-22T14:44:13.528Z,29.10
2018-04-22T14:46:43.139Z,29.10
2018-04-22T14:49:13.004Z,29.00
2018-04-22T14:51:43.074Z,28.20
2018-04-22T14:54:12.073Z,28.20
2018-04-22T14:56:40.713Z,28.10
2018-04-22T14:59:08.383Z,28.20
2018-04-22T15:01:35.950Z,28.20
2018-04-22T15:04:04.390Z,28.30
2018-04-22T15:09:34.587Z,28.50
2018-04-22T15:18:03.161Z,29.10
2018-04-22T15:20:31.505Z,29.30
2018-04-22T15:23:01.214Z,29.90
2018-04-22T15:25:30.779Z,30.30
2018-04-22T15:27:58.791Z,29.90
2018-04-22T15:36:31.125Z,31.40
2018-04-22T15:39:22.859Z,31.30
2018-04-22T15:41:54.203Z,30.70
2018-04-22T15:44:24.631Z,30.10
2018-04-22T15:46:54.447Z,30.00
2018-04-22T15:49:24.189Z,30.40
2018-04-22T15:51:54.049Z,30.00
2018-04-22T15:54:23.978Z,30.00
2018-04-22T15:59:48.909Z,30.70
2018-04-22T16:02:18.770Z,30.70
2018-04-22T16:04:49.274Z,30.10
2018-04-22T16:07:17.503Z,30.00
2018-04-22T16:09:45.636Z,29.80
2018-04-22T16:12:14.826Z,29.50
2018-04-22T16:14:43.349Z,29.40
2018-04-22T16:17:11.828Z,28.80
2018-04-22T16:19:41.023Z,28.40
2018-04-22T16:22:08.680Z,28.50
2018-04-22T16:24:36.980Z,28.40
2018-04-22T16:27:05.485Z,28.60
2018-04-22T16:29:35.317Z,28.70
2018-04-22T16:32:02.876Z,28.70
2018-04-22T16:34:30.450Z,28.40
2018-04-22T16:36:58.022Z,28.70
2018-04-22T16:39:26.520Z,28.70
2018-04-22T16:41:54.082Z,28.70
2018-04-22T16:44:22.393Z,29.00
2018-04-22T16:46:49.977Z,29.20
2018-04-22T16:49:17.561Z,28.70
2018-04-22T16:51:45.124Z,28.40
2018-04-22T16:54:13.585Z,27.70
2018-04-22T16:56:41.142Z,27.30
2018-04-22T16:59:09.323Z,27.00
2018-04-22T17:01:36.923Z,26.70
2018-04-22T17:04:05.038Z,26.60
2018-04-22T17:06:33.458Z,26.40
2018-04-22T17:09:01.116Z,26.30
2018-04-22T17:11:28.658Z,26.20
2018-04-22T17:13:56.289Z,25.90
2018-04-22T17:16:24.662Z,25.50
2018-04-22T17:19:10.950Z,25.30
2018-04-22T17:21:39.350Z,25.10
2018-04-22T17:24:06.950Z,25.00
2018-04-22T17:26:34.569Z,24.80
2018-04-22T17:35:07.135Z,24.20
2018-04-22T17:37:34.757Z,23.90
2018-04-22T17:40:02.323Z,23.60
2018-04-22T17:42:30.007Z,23.40
2018-04-22T17:44:57.603Z,23.10
2018-04-22T17:47:26.030Z,22.60
2018-04-22T17:53:03.744Z,22.40
2018-04-22T17:55:31.810Z,22.30
2018-04-22T17:57:59.420Z,22.10
2018-04-22T18:00:27.413Z,22.00
2018-04-22T18:02:55.751Z,21.70
2018-04-22T18:05:36.249Z,21.70
2018-04-22T18:08:05.710Z,21.50
2018-04-22T18:10:33.302Z,21.40
2018-04-22T18:13:00.837Z,21.40
2018-04-22T18:15:42.048Z,21.30
2018-04-22T18:18:10.697Z,21.10
2018-04-22T18:20:40.051Z,20.90
2018-04-22T18:23:12.877Z,20.80
2018-04-22T18:25:42.613Z,20.70
2018-04-22T18:28:11.848Z,20.70
2018-04-22T18:30:39.436Z,20.80
2018-04-22T18:33:08.086Z,20.70
2018-04-22T18:35:38.832Z,20.50
2018-04-22T18:38:08.651Z,20.40
2018-04-22T18:40:38.374Z,20.50
2018-04-22T18:43:08.242Z,20.40
2018-04-22T18:45:38.918Z,20.40
2018-04-22T18:48:09.271Z,20.40
2018-04-22T18:50:39.046Z,20.60
2018-04-22T18:53:09.000Z,20.40
2018-04-22T18:55:38.831Z,20.30
2018-04-22T18:58:08.643Z,20.20
2018-04-22T19:00:39.035Z,20.40
2018-04-22T19:03:08.938Z,20.30
2018-04-22T19:05:38.794Z,20.40
2018-04-22T19:08:06.617Z,20.50
2018-04-22T19:13:39.866Z,20.40
2018-04-22T19:19:12.964Z,20.30
2018-04-22T19:21:54.444Z,20.40
2018-04-22T19:24:22.161Z,20.30
2018-04-22T19:29:55.921Z,20.10
2018-04-22T19:32:43.006Z,20.10
2018-04-22T19:35:13.468Z,20.00
2018-04-22T19:37:44.105Z,19.90
2018-04-22T19:40:13.549Z,19.70
2018-04-22T19:42:44.051Z,19.50
2018-04-22T19:45:13.935Z,19.50
2018-04-22T19:47:43.827Z,19.60
2018-04-22T19:50:14.174Z,19.80
2018-04-22T19:52:44.023Z,19.90
2018-04-22T19:55:13.896Z,20.10
2018-04-22T19:57:43.777Z,20.10
2018-04-22T20:00:14.347Z,20.10
2018-04-22T20:02:44.114Z,20.10
2018-04-22T20:05:13.807Z,20.00
2018-04-22T20:07:44.516Z,20.20
2018-04-22T20:10:14.453Z,20.20
2018-04-22T20:12:44.344Z,20.30
2018-04-22T20:15:14.131Z,20.30
2018-04-22T20:17:43.834Z,20.30
2018-04-22T20:20:13.218Z,20.20
2018-04-22T20:22:43.734Z,20.10
2018-04-22T20:25:14.189Z,19.90
2018-04-22T20:27:43.952Z,19.90
2018-04-22T20:30:13.821Z,20.00
2018-04-22T20:32:43.000Z,19.90
2018-04-22T20:35:12.862Z,19.90
2018-04-22T20:37:42.575Z,19.90
2018-04-22T20:40:12.143Z,20.00
2018-04-22T20:42:43.156Z,20.10
2018-04-22T20:45:12.991Z,20.00
2018-04-22T20:47:42.740Z,20.00
2018-04-22T20:50:12.654Z,20.10
2018-04-22T20:52:42.005Z,20.10
2018-04-22T20:55:12.658Z,20.00
2018-04-22T20:57:42.506Z,19.90
2018-04-22T21:00:12.295Z,19.80
2018-04-22T21:02:41.367Z,19.70
2018-04-22T21:05:11.961Z,19.60
2018-04-22T21:07:42.448Z,19.20
2018-04-22T21:10:12.231Z,19.20
2018-04-22T21:12:42.073Z,19.00
2018-04-22T21:15:11.811Z,18.90
2018-04-22T21:17:42.487Z,18.90
2018-04-22T21:20:12.379Z,19.10
2018-04-22T21:22:42.318Z,19.40
2018-04-22T21:25:12.152Z,19.50
2018-04-22T21:27:42.061Z,19.60
2018-04-22T21:30:11.790Z,19.60
2018-04-22T21:32:41.654Z,19.60
2018-04-22T21:35:11.157Z,19.60
2018-04-22T21:37:42.009Z,19.50
2018-04-22T21:40:11.692Z,19.50
2018-04-22T21:42:42.331Z,19.40
2018-04-22T21:45:12.823Z,19.30
2018-04-22T21:47:43.439Z,19.30
2018-04-22T21:50:12.903Z,19.30
2018-04-22T21:52:41.228Z,19.40
2018-04-22T21:55:10.931Z,19.30
2018-04-22T21:57:40.581Z,19.20
2018-04-22T22:00:10.154Z,18.90
2018-04-22T22:02:38.270Z,18.80
2018-04-22T22:05:08.268Z,18.70
2018-04-22T22:07:38.152Z,18.50
2018-04-22T22:10:07.920Z,18.40
2018-04-22T22:12:38.620Z,18.30
2018-04-22T22:15:08.507Z,18.20
2018-04-22T22:17:38.369Z,18.10
2018-04-22T22:20:09.759Z,17.90
2018-04-22T22:22:39.632Z,17.90
2018-04-22T22:25:09.366Z,17.90
2018-04-22T22:27:39.230Z,17.90
2018-04-22T22:30:09.370Z,17.80
2018-04-22T22:32:37.879Z,17.70
2018-04-22T22:35:09.099Z,17.70
2018-04-22T22:37:39.744Z,17.60
2018-04-22T22:40:10.661Z,17.50
2018-04-22T22:42:41.116Z,17.50
2018-04-22T22:45:10.944Z,17.50
2018-04-22T22:47:40.654Z,17.50
2018-04-22T22:50:10.566Z,17.50
2018-04-22T22:52:40.308Z,17.50
2018-04-22T22:55:08.223Z,17.60
2018-04-22T22:57:37.793Z,17.50
2018-04-22T23:00:07.558Z,17.50
2018-04-22T23:02:36.669Z,17.50
2018-04-22T23:05:07.164Z,17.50
2018-04-22T23:07:37.782Z,17.50
2018-04-22T23:10:08.387Z,17.40
2018-04-22T23:12:38.239Z,17.40
2018-04-22T23:15:08.123Z,17.40
2018-04-22T23:17:38.802Z,17.90
2018-04-22T23:20:08.521Z,17.90
2018-04-22T23:22:38.337Z,18.10
2018-04-22T23:25:08.179Z,18.30
2018-04-22T23:27:35.738Z,18.60
2018-04-22T23:30:05.935Z,18.60
2018-04-22T23:32:35.063Z,18.60
2018-04-22T23:35:04.622Z,18.60
2018-04-22T23:37:35.708Z,18.60
2018-04-22T23:40:05.553Z,18.50
2018-04-22T23:42:35.308Z,18.50
2018-04-22T23:45:05.171Z,18.40
2018-04-22T23:47:34.584Z,18.30
2018-04-22T23:50:05.198Z,18.10
2018-04-22T23:52:33.538Z,17.90
2018-04-22T23:55:03.352Z,17.80
2018-04-22T23:57:32.980Z,17.80
